createdAt,value
2022-12-01T00:01:09.998Z,10.27
2022-12-01T00:03:36.733Z,10.10
2022-12-01T00:06:23.419Z,9.32
2022-12-01T00:09:12.984Z,8.70
2022-12-01T00:11:41.858Z,9.20
2022-12-01T00:14:08.472Z,9.40
2022-12-01T00:16:35.175Z,8.93
2022-12-01T00:19:02.036Z,8.30
2022-12-01T00:21:28.968Z,8.93
2022-12-01T00:23:57.454Z,9.00
2022-12-01T00:26:26.812Z,9.20
2022-12-01T00:28:57.352Z,8.77
2022-12-01T00:31:24.479Z,8.77
2022-12-01T00:33:51.449Z,8.85
2022-12-01T00:36:18.504Z,9.60
2022-12-01T00:38:45.554Z,10.02
2022-12-01T00:41:12.367Z,9.02
2022-12-01T00:43:39.750Z,8.75
2022-12-01T00:46:07.034Z,9.30
2022-12-01T00:48:33.747Z,9.82
2022-12-01T00:51:00.552Z,10.18
2022-12-01T00:53:27.140Z,10.38
2022-12-01T00:55:56.854Z,10.43
2022-12-01T00:58:24.112Z,10.30
2022-12-01T01:01:01.210Z,10.48
2022-12-01T01:03:29.904Z,9.10
2022-12-01T01:05:56.737Z,9.50
2022-12-01T01:08:31.010Z,9.65
2022-12-01T01:10:59.740Z,10.00
2022-12-01T01:13:26.349Z,9.45
2022-12-01T01:16:03.060Z,10.57
2022-12-01T01:18:30.490Z,8.90
2022-12-01T01:20:58.638Z,9.95
2022-12-01T01:23:25.914Z,10.68
2022-12-01T01:25:52.692Z,8.57
2022-12-01T01:28:19.960Z,9.98
2022-12-01T01:30:46.872Z,11.07
2022-12-01T01:33:13.490Z,10.45
2022-12-01T01:35:40.028Z,9.07
2022-12-01T01:38:06.636Z,11.35
2022-12-01T01:40:33.201Z,9.63
2022-12-01T01:42:59.951Z,9.57
2022-12-01T01:45:29.682Z,10.75
2022-12-01T01:47:59.705Z,10.27
2022-12-01T01:50:28.754Z,10.65
2022-12-01T01:53:01.315Z,10.95
2022-12-01T01:55:30.319Z,11.13
2022-12-01T01:57:57.211Z,8.60
2022-12-01T02:00:24.100Z,10.43
2022-12-01T02:02:51.768Z,10.57
2022-12-01T02:05:25.598Z,10.65
2022-12-01T02:07:55.064Z,11.13
2022-12-01T02:10:27.087Z,10.07
2022-12-01T02:15:48.079Z,10.15
2022-12-01T02:18:45.760Z,9.63
2022-12-01T02:21:33.552Z,9.15
2022-12-01T02:24:06.525Z,9.85
2022-12-01T02:26:49.020Z,10.00
2022-12-01T02:29:30.686Z,9.43
2022-12-01T02:31:57.193Z,10.13
2022-12-01T02:34:57.844Z,10.05
2022-12-01T02:37:51.754Z,10.40
2022-12-01T02:40:18.909Z,9.20
2022-12-01T02:42:54.474Z,10.35
2022-12-01T02:45:34.583Z,9.88
2022-12-01T02:48:03.167Z,10.38
2022-12-01T02:50:33.501Z,10.65
2022-12-01T02:53:03.069Z,11.00
2022-12-01T02:55:29.718Z,11.68
2022-12-01T02:57:56.388Z,10.80
2022-12-01T03:00:23.030Z,9.63
2022-12-01T03:03:42.300Z,11.55
2022-12-01T03:06:29.681Z,10.23
2022-12-01T03:09:15.771Z,10.20
2022-12-01T03:12:25.365Z,10.73
2022-12-01T03:15:00.612Z,10.43
2022-12-01T03:17:36.155Z,10.30
2022-12-01T03:20:24.718Z,9.50
2022-12-01T03:23:01.549Z,10.15
2022-12-01T03:25:30.404Z,10.02
2022-12-01T03:28:21.241Z,10.00
2022-12-01T03:30:48.526Z,8.43
2022-12-01T03:33:24.110Z,9.95
2022-12-01T03:35:56.259Z,9.05
2022-12-01T03:38:26.344Z,8.70
2022-12-01T03:40:58.635Z,10.30
2022-12-01T03:43:31.661Z,9.75
2022-12-01T03:46:12.245Z,9.90
2022-12-01T03:48:40.435Z,9.65
2022-12-01T03:51:26.182Z,8.10
2022-12-01T03:54:20.853Z,8.75
2022-12-01T03:56:56.969Z,9.00
2022-12-01T03:59:25.609Z,8.27
2022-12-01T04:01:52.994Z,8.15
2022-12-01T04:04:19.801Z,9.02
2022-12-01T04:06:50.203Z,8.95
2022-12-01T04:09:17.066Z,9.88
2022-12-01T04:12:02.124Z,8.43
2022-12-01T04:14:30.043Z,9.40
2022-12-01T04:16:56.630Z,9.88
2022-12-01T04:19:23.202Z,9.25
2022-12-01T04:21:49.875Z,9.70
2022-12-01T04:24:16.886Z,8.82
2022-12-01T04:26:44.412Z,8.90
2022-12-01T04:29:12.119Z,8.90
2022-12-01T04:31:39.269Z,9.50
2022-12-01T04:34:06.512Z,8.90
2022-12-01T04:36:34.752Z,9.00
2022-12-01T04:39:02.497Z,9.60
2022-12-01T04:41:29.081Z,9.05
2022-12-01T04:43:56.112Z,9.35
2022-12-01T04:46:23.943Z,9.48
2022-12-01T04:48:50.773Z,10.23
2022-12-01T04:51:17.775Z,10.05
2022-12-01T04:53:44.576Z,9.38
2022-12-01T04:56:11.193Z,9.52
2022-12-01T04:58:38.274Z,10.20
2022-12-01T05:01:10.460Z,9.52
2022-12-01T05:03:38.300Z,9.70
2022-12-01T05:06:07.685Z,8.43
2022-12-01T05:08:34.371Z,10.23
2022-12-01T05:11:01.683Z,10.50
2022-12-01T05:13:28.654Z,9.95
2022-12-01T05:16:05.122Z,10.20
2022-12-01T05:18:33.122Z,11.05
2022-12-01T05:21:00.076Z,11.35
2022-12-01T05:23:31.986Z,11.20
2022-12-01T05:25:59.024Z,11.60
2022-12-01T05:28:26.861Z,11.43
2022-12-01T05:30:54.736Z,11.68
2022-12-01T05:33:23.152Z,11.30
2022-12-01T05:35:50.582Z,12.43
2022-12-01T05:38:17.477Z,12.18
2022-12-01T05:40:55.864Z,11.23
2022-12-01T05:43:28.624Z,11.52
2022-12-01T05:45:57.115Z,11.82
2022-12-01T05:48:24.107Z,10.52
2022-12-01T05:50:50.708Z,9.98
2022-12-01T05:53:18.389Z,11.88
2022-12-01T05:55:45.296Z,10.57
2022-12-01T05:58:12.487Z,11.38
2022-12-01T06:00:45.390Z,11.07
2022-12-01T06:03:13.109Z,10.68
2022-12-01T06:05:39.906Z,11.50
2022-12-01T06:08:06.906Z,8.75
2022-12-01T06:10:33.535Z,9.93
2022-12-01T06:13:00.081Z,10.18
2022-12-01T06:15:27.187Z,9.63
2022-12-01T06:17:53.979Z,10.82
2022-12-01T06:20:20.673Z,10.45
2022-12-01T06:22:47.225Z,11.27
2022-12-01T06:25:13.824Z,10.75
2022-12-01T06:27:40.429Z,10.48
2022-12-01T06:30:07.718Z,8.88
2022-12-01T06:32:34.579Z,10.98
2022-12-01T06:35:01.136Z,11.00
2022-12-01T06:37:28.311Z,10.90
2022-12-01T06:39:55.057Z,10.45
2022-12-01T06:42:21.734Z,10.13
2022-12-01T06:44:48.287Z,11.57
2022-12-01T06:47:15.942Z,10.57
2022-12-01T06:49:42.712Z,9.40
2022-12-01T06:52:10.017Z,11.27
2022-12-01T06:54:37.467Z,11.05
2022-12-01T06:57:04.371Z,10.10
2022-12-01T06:59:31.131Z,11.15
2022-12-01T07:01:58.394Z,10.70
2022-12-01T07:04:24.989Z,9.73
2022-12-01T07:06:51.613Z,8.80
2022-12-01T07:09:18.195Z,10.32
2022-12-01T07:11:44.755Z,10.45
2022-12-01T07:14:22.086Z,11.07
2022-12-01T07:16:48.785Z,9.63
2022-12-01T07:19:15.401Z,9.73
2022-12-01T07:21:42.024Z,9.95
2022-12-01T07:24:09.004Z,9.60
2022-12-01T07:26:35.732Z,9.00
2022-12-01T07:29:02.293Z,11.38
2022-12-01T07:31:28.903Z,9.52
2022-12-01T07:33:55.664Z,9.38
2022-12-01T07:36:22.313Z,10.10
2022-12-01T07:38:48.860Z,9.15
2022-12-01T07:41:19.044Z,11.15
2022-12-01T07:43:46.214Z,9.77
2022-12-01T07:46:21.758Z,9.93
2022-12-01T07:48:50.061Z,9.43
2022-12-01T07:51:16.832Z,9.80
2022-12-01T07:53:45.271Z,9.85
2022-12-01T07:56:12.691Z,8.77
2022-12-01T07:58:39.641Z,10.43
2022-12-01T08:01:09.634Z,10.18
2022-12-01T08:03:36.441Z,9.13
2022-12-01T08:06:04.619Z,8.35
2022-12-01T08:08:32.834Z,9.15
2022-12-01T08:11:01.824Z,9.73
2022-12-01T08:13:28.816Z,10.60
2022-12-01T08:15:55.945Z,8.75
2022-12-01T08:18:23.179Z,11.10
2022-12-01T08:20:50.591Z,11.45
2022-12-01T08:23:17.334Z,9.90
2022-12-01T08:25:43.897Z,10.85
2022-12-01T08:28:10.496Z,9.82
2022-12-01T08:30:37.122Z,9.57
2022-12-01T08:33:03.714Z,9.30
2022-12-01T08:35:30.321Z,9.60
2022-12-01T08:37:56.935Z,8.25
2022-12-01T08:40:23.552Z,9.05
2022-12-01T08:42:52.127Z,9.85
2022-12-01T08:45:18.988Z,9.15
2022-12-01T08:47:45.530Z,8.88
2022-12-01T08:50:12.214Z,9.25
2022-12-01T08:52:38.807Z,9.68
2022-12-01T08:55:06.023Z,7.63
2022-12-01T08:57:32.609Z,9.07
2022-12-01T08:59:59.155Z,9.40
2022-12-01T09:02:25.931Z,7.70
2022-12-01T09:04:52.567Z,9.02
2022-12-01T09:07:26.098Z,9.00
2022-12-01T09:09:53.303Z,7.88
2022-12-01T09:12:19.912Z,8.55
2022-12-01T09:14:49.781Z,7.75
2022-12-01T09:17:17.592Z,8.65
2022-12-01T09:19:44.501Z,7.90
2022-12-01T09:22:11.988Z,8.90
2022-12-01T09:24:38.940Z,8.20
2022-12-01T09:27:06.466Z,9.90
2022-12-01T09:29:33.108Z,9.25
2022-12-01T09:32:00.821Z,8.32
2022-12-01T09:34:29.051Z,8.60
2022-12-01T09:36:58.264Z,8.40
2022-12-01T09:39:25.586Z,8.45
2022-12-01T09:41:57.561Z,8.93
2022-12-01T09:44:41.599Z,8.40
2022-12-01T09:47:24.915Z,8.50
2022-12-01T09:50:25.481Z,8.25
2022-12-01T09:52:57.976Z,8.73
2022-12-01T09:55:25.738Z,8.90
2022-12-01T09:57:55.019Z,10.07
2022-12-01T10:00:24.992Z,8.82
2022-12-01T10:03:00.537Z,9.43
2022-12-01T10:06:02.910Z,10.52
2022-12-01T10:08:31.670Z,8.10
2022-12-01T10:11:05.654Z,9.77
2022-12-01T10:13:33.067Z,10.13
2022-12-01T10:16:09.960Z,9.77
2022-12-01T10:18:51.824Z,9.77
2022-12-01T10:21:36.895Z,9.93
2022-12-01T10:24:21.870Z,9.25
2022-12-01T10:26:55.251Z,9.50
2022-12-01T10:29:36.663Z,7.82
2022-12-01T10:32:14.838Z,10.13
2022-12-01T10:34:43.172Z,8.15
2022-12-01T10:37:18.818Z,8.05
2022-12-01T10:39:49.477Z,8.25
2022-12-01T10:42:19.373Z,9.17
2022-12-01T10:44:46.567Z,7.35
2022-12-01T10:47:23.173Z,7.25
2022-12-01T10:49:50.147Z,7.97
2022-12-01T10:52:32.175Z,6.90
2022-12-01T10:54:59.209Z,6.97
2022-12-01T10:57:28.012Z,5.65
2022-12-01T11:00:01.626Z,8.00
2022-12-01T11:02:30.575Z,7.55
2022-12-01T11:05:03.280Z,7.28
2022-12-01T11:07:42.410Z,7.30
2022-12-01T11:10:26.120Z,7.10
2022-12-01T11:13:05.435Z,7.30
2022-12-01T11:15:53.311Z,7.28
2022-12-01T11:18:24.515Z,7.55
2022-12-01T11:21:06.350Z,8.40
2022-12-01T11:26:20.739Z,6.55
2022-12-01T11:28:54.705Z,6.65
2022-12-01T11:31:36.154Z,7.65
2022-12-01T11:34:02.888Z,6.97
2022-12-01T11:36:42.308Z,7.30
2022-12-01T11:39:25.553Z,7.22
2022-12-01T11:42:00.400Z,6.97
2022-12-01T11:44:50.403Z,6.93
2022-12-01T11:47:24.168Z,7.70
2022-12-01T11:49:58.550Z,6.75
2022-12-01T11:52:44.884Z,6.70
2022-12-01T11:55:11.355Z,6.78
2022-12-01T11:57:43.672Z,7.07
2022-12-01T12:00:15.498Z,5.95
2022-12-01T12:02:54.853Z,7.13
2022-12-01T12:05:42.399Z,7.22
2022-12-01T12:08:09.099Z,7.20
2022-12-01T12:10:48.379Z,7.22
2022-12-01T12:14:17.654Z,6.28
2022-12-01T12:17:05.839Z,6.25
2022-12-01T12:20:09.610Z,7.57
2022-12-01T12:22:55.389Z,6.47
2022-12-01T12:25:42.690Z,8.82
2022-12-01T12:28:27.811Z,6.53
2022-12-01T12:31:10.061Z,6.53
2022-12-01T12:33:55.638Z,7.00
2022-12-01T12:36:25.045Z,6.80
2022-12-01T12:39:19.534Z,5.97
2022-12-01T12:41:50.180Z,6.32
2022-12-01T12:44:33.751Z,7.15
2022-12-01T12:47:30.793Z,6.47
2022-12-01T12:50:00.409Z,5.55
2022-12-01T12:52:33.541Z,6.28
2022-12-01T12:55:03.075Z,5.60
2022-12-01T12:57:34.021Z,5.95
2022-12-01T13:00:06.695Z,6.37
2022-12-01T13:02:41.210Z,7.30
2022-12-01T13:05:36.132Z,7.30
2022-12-01T13:08:09.122Z,6.68
2022-12-01T13:10:48.757Z,6.03
2022-12-01T13:13:38.985Z,6.80
2022-12-01T13:16:11.060Z,6.68
2022-12-01T13:18:55.197Z,5.93
2022-12-01T13:21:23.855Z,7.25
2022-12-01T13:23:52.391Z,8.02
2022-12-01T13:26:21.179Z,6.40
2022-12-01T13:28:57.480Z,7.13
2022-12-01T13:31:24.780Z,7.88
2022-12-01T13:33:56.524Z,7.75
2022-12-01T13:39:25.328Z,6.03
2022-12-01T13:44:39.247Z,7.15
2022-12-01T13:47:11.621Z,6.65
2022-12-01T13:49:45.899Z,6.63
2022-12-01T13:52:21.434Z,6.15
2022-12-01T13:55:09.554Z,6.53
2022-12-01T13:57:36.113Z,6.80
2022-12-01T14:00:30.591Z,7.88
2022-12-01T14:03:20.274Z,7.40
2022-12-01T14:06:02.023Z,7.15
2022-12-01T14:08:40.138Z,5.97
2022-12-01T14:11:26.600Z,6.85
2022-12-01T14:13:58.934Z,7.00
2022-12-01T14:16:45.105Z,6.20
2022-12-01T14:19:44.939Z,6.22
2022-12-01T14:22:29.835Z,5.53
2022-12-01T14:24:56.464Z,6.47
2022-12-01T14:27:39.767Z,6.60
2022-12-01T14:30:40.863Z,6.68
2022-12-01T14:33:47.752Z,6.22
2022-12-01T14:36:21.448Z,6.28
2022-12-01T14:38:51.183Z,6.10
2022-12-01T14:41:25.493Z,6.93
2022-12-01T14:44:03.627Z,6.80
2022-12-01T14:47:09.777Z,5.32
2022-12-01T14:49:51.100Z,5.72
2022-12-01T14:52:26.749Z,5.38
2022-12-01T14:54:56.657Z,6.00
2022-12-01T14:57:34.198Z,6.40
2022-12-01T15:00:04.947Z,5.93
2022-12-01T15:02:32.208Z,6.78
2022-12-01T15:05:16.704Z,5.60
2022-12-01T15:07:48.542Z,5.72
2022-12-01T15:10:21.160Z,5.47
2022-12-01T15:12:49.169Z,5.40
2022-12-01T15:15:23.466Z,6.07
2022-12-01T15:17:51.721Z,6.38
2022-12-01T15:20:35.620Z,6.70
2022-12-01T15:23:12.869Z,5.55
2022-12-01T15:25:43.185Z,6.70
2022-12-01T15:28:19.900Z,6.50
2022-12-01T15:30:51.764Z,7.22
2022-12-01T15:33:36.706Z,7.07
2022-12-01T15:36:04.624Z,5.95
2022-12-01T15:38:34.365Z,6.18
2022-12-01T15:43:57.712Z,8.13
2022-12-01T15:46:34.313Z,7.00
2022-12-01T15:49:29.627Z,7.32
2022-12-01T15:52:06.783Z,7.15
2022-12-01T15:54:33.992Z,7.35
2022-12-01T15:57:01.220Z,6.38
2022-12-01T15:59:35.613Z,6.07
2022-12-01T16:02:15.161Z,7.03
2022-12-01T16:04:41.873Z,7.45
2022-12-01T16:07:10.565Z,6.05
2022-12-01T16:09:40.320Z,6.18
2022-12-01T16:12:07.317Z,7.05
2022-12-01T16:14:34.806Z,6.07
2022-12-01T16:17:02.095Z,6.80
2022-12-01T16:19:33.741Z,6.55
2022-12-01T16:22:03.142Z,6.60
2022-12-01T16:24:34.280Z,6.53
2022-12-01T16:27:08.685Z,7.13
2022-12-01T16:29:49.402Z,7.65
2022-12-01T16:32:32.090Z,6.55
2022-12-01T16:34:58.865Z,7.97
2022-12-01T16:37:28.864Z,8.10
2022-12-01T16:39:55.596Z,7.57
2022-12-01T16:42:22.595Z,7.32
2022-12-01T16:44:51.093Z,7.93
2022-12-01T16:47:24.365Z,7.18
2022-12-01T16:49:51.991Z,8.57
2022-12-01T16:52:43.520Z,7.93
2022-12-01T16:55:16.913Z,9.02
2022-12-01T16:57:43.485Z,10.45
2022-12-01T17:00:12.367Z,9.38
2022-12-01T17:02:38.979Z,9.27
2022-12-01T17:05:05.780Z,11.77
2022-12-01T17:07:32.396Z,8.70
2022-12-01T17:09:59.133Z,9.07
2022-12-01T17:12:26.748Z,8.15
2022-12-01T17:14:53.327Z,9.23
2022-12-01T17:17:19.879Z,9.38
2022-12-01T17:19:46.432Z,10.38
2022-12-01T17:22:13.050Z,9.13
2022-12-01T17:24:39.578Z,9.07
2022-12-01T17:27:06.150Z,8.98
2022-12-01T17:29:32.789Z,9.55
2022-12-01T17:31:59.339Z,8.57
2022-12-01T17:34:25.875Z,8.27
2022-12-01T17:36:52.747Z,9.00
2022-12-01T17:39:19.445Z,10.13
2022-12-01T17:41:46.013Z,9.38
2022-12-01T17:44:12.590Z,8.13
2022-12-01T17:46:41.530Z,7.25
2022-12-01T17:49:10.563Z,7.57
2022-12-01T17:51:37.188Z,8.32
2022-12-01T17:54:04.074Z,7.88
2022-12-01T17:56:30.874Z,7.88
2022-12-01T17:58:57.417Z,9.35
2022-12-01T18:01:30.002Z,8.95
2022-12-01T18:04:00.212Z,8.48
2022-12-01T18:06:27.437Z,8.60
2022-12-01T18:08:54.163Z,8.45
2022-12-01T18:11:21.982Z,7.20
2022-12-01T18:13:50.730Z,8.90
2022-12-01T18:16:20.107Z,7.22
2022-12-01T18:18:47.253Z,9.35
2022-12-01T18:21:16.786Z,8.80
2022-12-01T18:23:52.646Z,8.57
2022-12-01T18:26:21.818Z,7.97
2022-12-01T18:28:57.040Z,9.13
2022-12-01T18:31:24.500Z,7.60
2022-12-01T18:33:51.739Z,8.30
2022-12-01T18:36:21.764Z,8.35
2022-12-01T18:38:49.424Z,8.50
2022-12-01T18:41:16.912Z,8.13
2022-12-01T18:43:44.265Z,7.95
2022-12-01T18:46:13.665Z,7.00
2022-12-01T18:48:48.479Z,9.15
2022-12-01T18:51:15.469Z,8.73
2022-12-01T18:53:42.853Z,8.30
2022-12-01T18:56:12.028Z,7.65
2022-12-01T18:58:39.665Z,7.88
2022-12-01T19:01:27.574Z,7.05
2022-12-01T19:03:55.525Z,7.10
2022-12-01T19:06:22.982Z,7.47
2022-12-01T19:08:50.071Z,7.63
2022-12-01T19:11:17.163Z,8.07
2022-12-01T19:13:44.279Z,8.48
2022-12-01T19:16:14.702Z,8.48
2022-12-01T19:18:42.072Z,7.93
2022-12-01T19:21:11.325Z,8.15
2022-12-01T19:23:37.974Z,8.13
2022-12-01T19:26:06.706Z,8.50
2022-12-01T19:28:34.934Z,8.80
2022-12-01T19:31:06.884Z,7.78
2022-12-01T19:33:33.899Z,8.65
2022-12-01T19:36:05.819Z,8.43
2022-12-01T19:38:32.437Z,7.82
2022-12-01T19:40:59.076Z,7.18
2022-12-01T19:43:25.653Z,7.25
2022-12-01T19:45:52.225Z,9.00
2022-12-01T19:48:18.863Z,8.60
2022-12-01T19:50:45.433Z,8.32
2022-12-01T19:53:12.015Z,8.43
2022-12-01T19:55:38.860Z,7.82
2022-12-01T19:58:05.979Z,7.43
2022-12-01T20:00:32.569Z,7.32
2022-12-01T20:03:00.381Z,7.53
2022-12-01T20:05:27.174Z,7.57
2022-12-01T20:07:53.866Z,7.95
2022-12-01T20:10:20.644Z,7.75
2022-12-01T20:12:47.947Z,8.45
2022-12-01T20:15:15.373Z,7.93
2022-12-01T20:17:42.380Z,6.38
2022-12-01T20:20:10.809Z,7.55
2022-12-01T20:22:38.115Z,8.07
2022-12-01T20:25:05.772Z,7.88
2022-12-01T20:27:32.762Z,7.72
2022-12-01T20:29:59.311Z,7.72
2022-12-01T20:32:25.938Z,7.57
2022-12-01T20:34:52.832Z,9.07
2022-12-01T20:37:19.733Z,9.55
2022-12-01T20:39:47.351Z,8.13
2022-12-01T20:42:13.966Z,9.48
2022-12-01T20:44:40.633Z,8.80
2022-12-01T20:47:07.214Z,10.30
2022-12-01T20:49:33.849Z,11.27
2022-12-01T20:52:00.412Z,10.27
2022-12-01T20:54:28.702Z,8.60
2022-12-01T20:56:56.746Z,9.27
2022-12-01T20:59:23.420Z,8.20
2022-12-01T21:01:50.063Z,8.15
2022-12-01T21:04:17.618Z,8.75
2022-12-01T21:06:44.209Z,9.90
2022-12-01T21:09:12.395Z,8.80
2022-12-01T21:12:07.663Z,9.25
2022-12-01T21:15:00.053Z,8.90
2022-12-01T21:17:34.242Z,9.60
2022-12-01T21:20:05.577Z,8.52
2022-12-01T21:22:32.240Z,8.95
2022-12-01T21:25:23.377Z,9.02
2022-12-01T21:27:50.613Z,9.43
2022-12-01T21:30:24.906Z,9.15
2022-12-01T21:32:52.864Z,8.43
2022-12-01T21:35:21.398Z,8.13
2022-12-01T21:37:49.244Z,7.65
2022-12-01T21:40:22.990Z,9.68
2022-12-01T21:42:50.082Z,7.60
2022-12-01T21:45:22.294Z,8.55
2022-12-01T21:47:48.918Z,6.47
2022-12-01T21:50:22.335Z,9.23
2022-12-01T21:52:49.933Z,8.10
2022-12-01T21:55:16.432Z,8.63
2022-12-01T21:57:51.169Z,7.70
2022-12-01T22:00:33.023Z,8.25
2022-12-01T22:05:55.852Z,8.30
2022-12-01T22:08:34.406Z,7.55
2022-12-01T22:11:03.943Z,7.93
2022-12-01T22:13:59.236Z,10.23
2022-12-01T22:16:28.578Z,9.40
2022-12-01T22:18:57.244Z,8.20
2022-12-01T22:21:23.809Z,9.30
2022-12-01T22:24:15.840Z,8.82
2022-12-01T22:29:28.369Z,7.70
2022-12-01T22:32:12.997Z,7.65
2022-12-01T22:34:49.143Z,8.60
2022-12-01T22:37:20.750Z,7.80
2022-12-01T22:39:50.261Z,8.40
2022-12-01T22:42:32.028Z,9.30
2022-12-01T22:45:25.685Z,9.55
2022-12-01T22:48:00.339Z,8.35
2022-12-01T22:50:32.554Z,8.18
2022-12-01T22:53:06.065Z,8.65
2022-12-01T22:55:32.662Z,9.02
2022-12-01T22:57:59.806Z,9.15
2022-12-01T23:00:27.197Z,8.80
2022-12-01T23:02:55.832Z,8.25
2022-12-01T23:05:27.945Z,9.45
2022-12-01T23:07:55.334Z,8.02
2022-12-01T23:10:41.485Z,8.23
2022-12-01T23:13:21.967Z,9.25
2022-12-01T23:15:51.657Z,7.40
2022-12-01T23:18:23.033Z,9.38
2022-12-01T23:20:52.884Z,8.70
2022-12-01T23:23:28.366Z,8.63
2022-12-01T23:25:55.669Z,8.32
2022-12-01T23:28:23.231Z,7.95
2022-12-01T23:30:56.834Z,8.57
2022-12-01T23:33:30.396Z,9.10
2022-12-01T23:36:02.253Z,8.18
2022-12-01T23:38:35.954Z,7.95
2022-12-01T23:41:06.245Z,8.82
2022-12-01T23:43:40.141Z,8.35
2022-12-01T23:46:09.644Z,8.52
2022-12-01T23:48:39.491Z,8.30
2022-12-01T23:51:15.780Z,8.30
2022-12-01T23:53:43.136Z,9.43
2022-12-01T23:56:14.327Z,9.43
2022-12-01T23:58:40.975Z,9.60
